Aeroporto :
LOGIN :

Iscrizione | Disclaimer

   EN    FR    IT 

 










Sommario :    VFR   VFR Marginale   IFR   IFR Intensivo   IFR Molto Intensivo
Visibilità : 
Base nubi : 
>= 8 km
>= 3000ft
5 / 8 km
1000 / 3000 ft
1500m / 5 km
500 / 1000 ft
800 / 1500m
200 / 500 ft
< 800m
< 200 ft
Simboli :   Temporali  Nebbia  Neve Forte  Precipitazioni Forti  Vento > 20 kt
SIGMETs :   Varie  Temporali  Ghiacco  Turbolenza  Onda orograficha  Ceneri Vulcaniche






- Altitudine del aeroporto : 405 ft
- Codice IATA : SUJ


LRSM - Satu Mare

ULTIMO METAR :
  • 061700Z 13004KT 5000 BR OVC008 M02/M03 Q1024

METARs OBSOLETI :
  • 061630Z 15005KT 5000 BR BKN005 OVC008 M02/M03 Q1024
  • 061600Z 15004KT 5000 BR FEW004 BKN006 OVC008 M02/M03 Q1024
  • 061530Z 13003KT 5000 BR BKN004 OVC006 M02/M03 Q1024
  • 061500Z 14002KT 4500 BR BKN006 OVC008 M03/M04 Q1024
  • 061430Z 16001KT 4000 BR BKN006 OVC008 M03/M04 Q1024

TAF TAF LRSM
Valido dal 06 a 15 ore il 07 a 00 ore UTC


061400Z 0615/0624 VRB04KT 3000 BR OVC010
BECMG 0616/0618 1500 BR BKN005
PROB40
TEMPO 0620/0624 0800 FZFG BKN002



MetMap, La meteo Aeronautica in un colpo d'occhio ! - Copyright ORBIFLY Dicembre 2007 - Disclaimer

ORBIFLY MET'MAP TEAM :

Programmazione e sviluppo : Alexandra Zaïnal
Concezione : Baudouin d'Aumeries
Aiuto per la programmazione : Marc-Olivier Méhu
Supporto tecnico e logistico : Manuel Goepfert
Aiuto per la traduzione : Arnaldo La Scala

Contatto : metmap@orbifly.com




FONTI E CREDITI :

   NOAA